Terminal Aerodrome Forecast
Issued by NWS Cleveland, OH

Home | Current Version | Previous Version | Text Only | Print | Product List | Glossary On
Versions: 1 2 3 4 5 6 7 8 9 10 11 12 13 14 15 16 17 18 19 20 21 22 23
000
FTUS41 KCLE 230539
TAFERI
TAF
KERI 230539Z 2306/2406 16014G22KT P6SM -SHRA SCT025 OVC040
      TEMPO 2307/2310 VRB25G35KT 3SM -TSRA OVC025CB
     FM231100 19010KT P6SM BKN040
     FM231500 22014G22KT 6SM -SHRA OVC025
     FM232100 23020G30KT 5SM -SHRASN OVC012
     FM240000 26015G25KT 3SM -SHSN SCT008 OVC012=

USA.gov is the U.S. government's official web portal to all federal, state and local government web resources and services.